sensor_id;sensor_type;location;lat;lon;timestamp;temperature;humidity
39347;DHT22;26262;49.836;6.632;2022-09-09T00:04:39;15.20;99.90
39347;DHT22;26262;49.836;6.632;2022-09-09T00:21:15;15.00;99.90
39347;DHT22;26262;49.836;6.632;2022-09-09T00:23:48;14.90;99.90
39347;DHT22;26262;49.836;6.632;2022-09-09T00:26:33;14.80;99.90
39347;DHT22;26262;49.836;6.632;2022-09-09T00:31:41;14.50;99.90
39347;DHT22;26262;49.836;6.632;2022-09-09T00:34:18;14.40;99.90
39347;DHT22;26262;49.836;6.632;2022-09-09T00:36:48;14.40;99.90
39347;DHT22;26262;49.836;6.632;2022-09-09T00:39:44;14.40;99.90
39347;DHT22;26262;49.836;6.632;2022-09-09T00:50:05;14.90;99.90
39347;DHT22;26262;49.836;6.632;2022-09-09T00:52:44;14.90;99.90
39347;DHT22;26262;49.836;6.632;2022-09-09T00:55:40;14.90;99.90
39347;DHT22;26262;49.836;6.632;2022-09-09T00:58:09;14.80;99.90
39347;DHT22;26262;49.836;6.632;2022-09-09T01:00:51;14.90;99.90
39347;DHT22;26262;49.836;6.632;2022-09-09T01:03:34;15.10;99.90
39347;DHT22;26262;49.836;6.632;2022-09-09T01:06:38;15.00;99.90
39347;DHT22;26262;49.836;6.632;2022-09-09T01:09:32;14.90;99.90
39347;DHT22;26262;49.836;6.632;2022-09-09T01:14:48;14.90;99.90
39347;DHT22;26262;49.836;6.632;2022-09-09T01:17:26;14.90;99.90
39347;DHT22;26262;49.836;6.632;2022-09-09T01:25:30;14.90;99.90
39347;DHT22;26262;49.836;6.632;2022-09-09T01:28:03;14.80;99.90
39347;DHT22;26262;49.836;6.632;2022-09-09T01:30:33;14.90;99.90
39347;DHT22;26262;49.836;6.632;2022-09-09T01:32:59;14.80;99.90
39347;DHT22;26262;49.836;6.632;2022-09-09T01:38:04;14.80;99.90
39347;DHT22;26262;49.836;6.632;2022-09-09T01:40:30;14.90;99.90
39347;DHT22;26262;49.836;6.632;2022-09-09T01:42:56;14.70;99.90
39347;DHT22;26262;49.836;6.632;2022-09-09T01:45:22;14.70;99.90
39347;DHT22;26262;49.836;6.632;2022-09-09T01:47:49;14.80;99.90
39347;DHT22;26262;49.836;6.632;2022-09-09T01:50:16;14.80;99.90
39347;DHT22;26262;49.836;6.632;2022-09-09T01:52:44;14.70;99.90
39347;DHT22;26262;49.836;6.632;2022-09-09T01:55:10;14.70;99.90
39347;DHT22;26262;49.836;6.632;2022-09-09T02:00:10;14.70;99.90
39347;DHT22;26262;49.836;6.632;2022-09-09T02:08:09;14.70;99.90
39347;DHT22;26262;49.836;6.632;2022-09-09T02:13:21;14.50;99.90
39347;DHT22;26262;49.836;6.632;2022-09-09T02:16:04;14.60;99.90
39347;DHT22;26262;49.836;6.632;2022-09-09T02:18:57;14.60;99.90
39347;DHT22;26262;49.836;6.632;2022-09-09T02:21:25;14.60;99.90
39347;DHT22;26262;49.836;6.632;2022-09-09T02:23:55;14.70;99.90
39347;DHT22;26262;49.836;6.632;2022-09-09T02:26:22;14.60;99.90
39347;DHT22;26262;49.836;6.632;2022-09-09T02:28:49;14.50;99.90
39347;DHT22;26262;49.836;6.632;2022-09-09T02:31:18;14.60;99.90
39347;DHT22;26262;49.836;6.632;2022-09-09T02:33:58;14.50;99.90
39347;DHT22;26262;49.836;6.632;2022-09-09T02:36:28;14.60;99.90
39347;DHT22;26262;49.836;6.632;2022-09-09T02:38:56;14.60;99.90
39347;DHT22;26262;49.836;6.632;2022-09-09T02:41:27;14.70;99.90
39347;DHT22;26262;49.836;6.632;2022-09-09T02:43:55;14.60;99.90
39347;DHT22;26262;49.836;6.632;2022-09-09T02:46:55;14.60;99.90
39347;DHT22;26262;49.836;6.632;2022-09-09T02:52:11;14.80;99.90
39347;DHT22;26262;49.836;6.632;2022-09-09T02:54:41;14.80;99.90
39347;DHT22;26262;49.836;6.632;2022-09-09T02:57:23;14.80;99.90
39347;DHT22;26262;49.836;6.632;2022-09-09T02:59:50;14.80;99.90
39347;DHT22;26262;49.836;6.632;2022-09-09T03:02:17;14.70;99.90
39347;DHT22;26262;49.836;6.632;2022-09-09T03:04:43;14.80;99.90
39347;DHT22;26262;49.836;6.632;2022-09-09T03:07:10;14.90;99.90
39347;DHT22;26262;49.836;6.632;2022-09-09T03:09:36;14.80;99.90
39347;DHT22;26262;49.836;6.632;2022-09-09T03:12:02;14.80;99.90
39347;DHT22;26262;49.836;6.632;2022-09-09T03:14:29;14.80;99.90
39347;DHT22;26262;49.836;6.632;2022-09-09T03:16:55;15.00;99.90
39347;DHT22;26262;49.836;6.632;2022-09-09T03:19:23;15.00;99.90
39347;DHT22;26262;49.836;6.632;2022-09-09T03:21:48;14.90;99.90
39347;DHT22;26262;49.836;6.632;2022-09-09T03:24:14;14.90;99.90
39347;DHT22;26262;49.836;6.632;2022-09-09T03:26:41;14.80;99.90
39347;DHT22;26262;49.836;6.632;2022-09-09T03:29:07;14.70;99.90
39347;DHT22;26262;49.836;6.632;2022-09-09T03:31:35;14.70;99.90
39347;DHT22;26262;49.836;6.632;2022-09-09T03:34:02;14.80;99.90
39347;DHT22;26262;49.836;6.632;2022-09-09T03:36:27;14.80;99.90
39347;DHT22;26262;49.836;6.632;2022-09-09T03:38:53;14.80;99.90
39347;DHT22;26262;49.836;6.632;2022-09-09T03:41:20;14.90;99.90
39347;DHT22;26262;49.836;6.632;2022-09-09T03:43:47;14.80;99.90
39347;DHT22;26262;49.836;6.632;2022-09-09T03:46:12;14.90;99.90
39347;DHT22;26262;49.836;6.632;2022-09-09T03:48:38;14.80;99.90
39347;DHT22;26262;49.836;6.632;2022-09-09T03:51:03;14.80;99.90
39347;DHT22;26262;49.836;6.632;2022-09-09T03:53:29;14.80;99.90
39347;DHT22;26262;49.836;6.632;2022-09-09T03:55:56;14.90;99.90
39347;DHT22;26262;49.836;6.632;2022-09-09T03:58:25;14.90;99.90
39347;DHT22;26262;49.836;6.632;2022-09-09T04:01:00;14.80;99.90
39347;DHT22;26262;49.836;6.632;2022-09-09T04:03:26;14.90;99.90
39347;DHT22;26262;49.836;6.632;2022-09-09T04:05:53;14.80;99.90
39347;DHT22;26262;49.836;6.632;2022-09-09T04:08:22;14.70;99.90
39347;DHT22;26262;49.836;6.632;2022-09-09T04:10:49;14.70;99.90
39347;DHT22;26262;49.836;6.632;2022-09-09T04:13:16;14.80;99.90
39347;DHT22;26262;49.836;6.632;2022-09-09T04:15:43;14.80;99.90
39347;DHT22;26262;49.836;6.632;2022-09-09T04:18:09;14.90;99.90
39347;DHT22;26262;49.836;6.632;2022-09-09T04:20:35;14.90;99.90
39347;DHT22;26262;49.836;6.632;2022-09-09T04:23:01;14.90;99.90
39347;DHT22;26262;49.836;6.632;2022-09-09T04:25:26;14.90;99.90
39347;DHT22;26262;49.836;6.632;2022-09-09T04:27:56;14.90;99.90
39347;DHT22;26262;49.836;6.632;2022-09-09T04:30:23;14.90;99.90
39347;DHT22;26262;49.836;6.632;2022-09-09T04:32:48;14.90;99.90
39347;DHT22;26262;49.836;6.632;2022-09-09T04:35:14;14.80;99.90
39347;DHT22;26262;49.836;6.632;2022-09-09T04:37:40;14.70;99.90
39347;DHT22;26262;49.836;6.632;2022-09-09T04:40:06;14.80;99.90
39347;DHT22;26262;49.836;6.632;2022-09-09T04:42:36;14.80;99.90
39347;DHT22;26262;49.836;6.632;2022-09-09T04:45:02;14.80;99.90
39347;DHT22;26262;49.836;6.632;2022-09-09T04:47:27;14.80;99.90
39347;DHT22;26262;49.836;6.632;2022-09-09T04:49:53;14.80;99.90
39347;DHT22;26262;49.836;6.632;2022-09-09T04:52:20;14.80;99.90
39347;DHT22;26262;49.836;6.632;2022-09-09T04:54:45;14.80;99.90
39347;DHT22;26262;49.836;6.632;2022-09-09T04:57:11;14.90;99.90
39347;DHT22;26262;49.836;6.632;2022-09-09T04:59:37;14.90;99.90
39347;DHT22;26262;49.836;6.632;2022-09-09T05:02:03;14.80;99.90
39347;DHT22;26262;49.836;6.632;2022-09-09T05:04:29;14.90;99.90
39347;DHT22;26262;49.836;6.632;2022-09-09T05:06:55;14.90;99.90
39347;DHT22;26262;49.836;6.632;2022-09-09T05:09:21;14.90;99.90
39347;DHT22;26262;49.836;6.632;2022-09-09T05:11:46;14.90;99.90
39347;DHT22;26262;49.836;6.632;2022-09-09T05:14:12;14.80;99.90
39347;DHT22;26262;49.836;6.632;2022-09-09T05:16:38;14.70;99.90
39347;DHT22;26262;49.836;6.632;2022-09-09T05:19:03;14.60;99.90
39347;DHT22;26262;49.836;6.632;2022-09-09T05:21:29;14.50;99.90
39347;DHT22;26262;49.836;6.632;2022-09-09T05:23:56;14.40;99.90
39347;DHT22;26262;49.836;6.632;2022-09-09T05:26:23;14.40;99.90
39347;DHT22;26262;49.836;6.632;2022-09-09T05:28:49;14.40;99.90
39347;DHT22;26262;49.836;6.632;2022-09-09T05:31:16;14.40;99.90
39347;DHT22;26262;49.836;6.632;2022-09-09T05:33:43;14.60;99.90
39347;DHT22;26262;49.836;6.632;2022-09-09T05:36:15;14.60;99.90
39347;DHT22;26262;49.836;6.632;2022-09-09T05:38:42;14.50;99.90
39347;DHT22;26262;49.836;6.632;2022-09-09T05:41:08;14.50;99.90
39347;DHT22;26262;49.836;6.632;2022-09-09T05:43:37;14.50;99.90
39347;DHT22;26262;49.836;6.632;2022-09-09T05:46:11;14.40;99.90
39347;DHT22;26262;49.836;6.632;2022-09-09T05:48:39;14.40;99.90
39347;DHT22;26262;49.836;6.632;2022-09-09T05:51:07;14.30;99.90
39347;DHT22;26262;49.836;6.632;2022-09-09T05:53:34;14.30;99.90
39347;DHT22;26262;49.836;6.632;2022-09-09T05:56:13;14.40;99.90
39347;DHT22;26262;49.836;6.632;2022-09-09T05:58:40;14.50;99.90
39347;DHT22;26262;49.836;6.632;2022-09-09T06:01:11;14.50;99.90
39347;DHT22;26262;49.836;6.632;2022-09-09T06:03:38;14.60;99.90
39347;DHT22;26262;49.836;6.632;2022-09-09T06:06:09;14.60;99.90
39347;DHT22;26262;49.836;6.632;2022-09-09T06:08:37;14.60;99.90
39347;DHT22;26262;49.836;6.632;2022-09-09T06:11:15;14.60;99.90
39347;DHT22;26262;49.836;6.632;2022-09-09T06:13:41;14.70;99.90
39347;DHT22;26262;49.836;6.632;2022-09-09T06:16:11;14.80;99.90
39347;DHT22;26262;49.836;6.632;2022-09-09T06:18:41;14.80;99.90
39347;DHT22;26262;49.836;6.632;2022-09-09T06:21:11;14.90;99.90
39347;DHT22;26262;49.836;6.632;2022-09-09T06:23:36;14.90;99.90
39347;DHT22;26262;49.836;6.632;2022-09-09T06:26:25;14.90;99.90
39347;DHT22;26262;49.836;6.632;2022-09-09T06:28:52;15.00;99.90
39347;DHT22;26262;49.836;6.632;2022-09-09T06:31:21;15.00;99.90
39347;DHT22;26262;49.836;6.632;2022-09-09T06:33:48;14.90;99.90
39347;DHT22;26262;49.836;6.632;2022-09-09T06:36:15;15.10;99.90
39347;DHT22;26262;49.836;6.632;2022-09-09T06:38:41;15.20;99.90
39347;DHT22;26262;49.836;6.632;2022-09-09T06:41:09;15.20;99.90
39347;DHT22;26262;49.836;6.632;2022-09-09T06:43:35;15.10;99.90
39347;DHT22;26262;49.836;6.632;2022-09-09T06:46:03;15.10;99.90
39347;DHT22;26262;49.836;6.632;2022-09-09T06:48:29;15.10;99.90
39347;DHT22;26262;49.836;6.632;2022-09-09T06:53:27;15.40;99.90
39347;DHT22;26262;49.836;6.632;2022-09-09T06:55:53;15.50;99.90
39347;DHT22;26262;49.836;6.632;2022-09-09T06:58:18;15.60;99.90
39347;DHT22;26262;49.836;6.632;2022-09-09T07:00:44;15.60;99.90
39347;DHT22;26262;49.836;6.632;2022-09-09T07:03:10;15.70;99.90
39347;DHT22;26262;49.836;6.632;2022-09-09T07:05:36;15.70;99.90
39347;DHT22;26262;49.836;6.632;2022-09-09T07:08:02;15.70;99.90
39347;DHT22;26262;49.836;6.632;2022-09-09T07:10:28;15.80;99.90
39347;DHT22;26262;49.836;6.632;2022-09-09T07:12:53;15.90;99.90
39347;DHT22;26262;49.836;6.632;2022-09-09T07:15:20;15.90;99.90
39347;DHT22;26262;49.836;6.632;2022-09-09T07:17:46;15.70;99.90
39347;DHT22;26262;49.836;6.632;2022-09-09T07:20:13;15.80;99.90
39347;DHT22;26262;49.836;6.632;2022-09-09T07:22:40;15.90;99.90
39347;DHT22;26262;49.836;6.632;2022-09-09T07:25:06;16.00;99.90
39347;DHT22;26262;49.836;6.632;2022-09-09T07:27:31;16.00;99.90
39347;DHT22;26262;49.836;6.632;2022-09-09T07:29:57;16.10;99.90
39347;DHT22;26262;49.836;6.632;2022-09-09T07:32:23;16.10;99.90
39347;DHT22;26262;49.836;6.632;2022-09-09T07:34:48;16.20;99.90
39347;DHT22;26262;49.836;6.632;2022-09-09T07:37:15;16.30;99.90
39347;DHT22;26262;49.836;6.632;2022-09-09T07:39:41;16.30;99.90
39347;DHT22;26262;49.836;6.632;2022-09-09T07:42:07;16.40;99.90
39347;DHT22;26262;49.836;6.632;2022-09-09T07:44:35;16.40;99.90
39347;DHT22;26262;49.836;6.632;2022-09-09T07:47:02;16.30;99.90
39347;DHT22;26262;49.836;6.632;2022-09-09T07:49:27;16.30;99.90
39347;DHT22;26262;49.836;6.632;2022-09-09T07:51:53;16.30;99.90
39347;DHT22;26262;49.836;6.632;2022-09-09T07:54:19;16.30;99.90
39347;DHT22;26262;49.836;6.632;2022-09-09T07:56:46;16.30;99.90
39347;DHT22;26262;49.836;6.632;2022-09-09T07:59:12;16.40;99.90
39347;DHT22;26262;49.836;6.632;2022-09-09T08:01:47;16.40;99.90
39347;DHT22;26262;49.836;6.632;2022-09-09T08:04:16;16.40;99.90
39347;DHT22;26262;49.836;6.632;2022-09-09T08:06:51;16.40;99.90
39347;DHT22;26262;49.836;6.632;2022-09-09T08:09:18;16.50;99.90
39347;DHT22;26262;49.836;6.632;2022-09-09T08:11:44;16.40;99.90
39347;DHT22;26262;49.836;6.632;2022-09-09T08:14:10;16.50;99.90
39347;DHT22;26262;49.836;6.632;2022-09-09T08:16:43;16.50;99.90
39347;DHT22;26262;49.836;6.632;2022-09-09T08:19:08;16.50;99.90
39347;DHT22;26262;49.836;6.632;2022-09-09T08:21:37;16.60;99.90
39347;DHT22;26262;49.836;6.632;2022-09-09T08:24:04;16.70;99.90
39347;DHT22;26262;49.836;6.632;2022-09-09T08:26:35;16.60;99.90
39347;DHT22;26262;49.836;6.632;2022-09-09T08:29:02;16.80;99.90
39347;DHT22;26262;49.836;6.632;2022-09-09T08:31:33;17.00;99.90
39347;DHT22;26262;49.836;6.632;2022-09-09T08:34:00;17.10;99.90
39347;DHT22;26262;49.836;6.632;2022-09-09T08:36:28;17.10;99.90
39347;DHT22;26262;49.836;6.632;2022-09-09T08:38:55;17.10;99.90
39347;DHT22;26262;49.836;6.632;2022-09-09T08:41:46;17.00;99.90
39347;DHT22;26262;49.836;6.632;2022-09-09T08:47:01;17.20;99.90
39347;DHT22;26262;49.836;6.632;2022-09-09T08:52:12;17.40;99.90
39347;DHT22;26262;49.836;6.632;2022-09-09T08:54:38;17.40;99.90
39347;DHT22;26262;49.836;6.632;2022-09-09T08:57:14;17.60;99.90
39347;DHT22;26262;49.836;6.632;2022-09-09T08:59:41;17.70;99.90
39347;DHT22;26262;49.836;6.632;2022-09-09T09:04:56;17.40;99.90
39347;DHT22;26262;49.836;6.632;2022-09-09T09:07:53;17.40;99.90
39347;DHT22;26262;49.836;6.632;2022-09-09T09:10:42;17.40;99.90
39347;DHT22;26262;49.836;6.632;2022-09-09T09:16:00;17.50;99.90
39347;DHT22;26262;49.836;6.632;2022-09-09T09:18:27;17.60;99.90
39347;DHT22;26262;49.836;6.632;2022-09-09T09:20:58;17.40;99.90
39347;DHT22;26262;49.836;6.632;2022-09-09T09:23:36;17.50;99.90
39347;DHT22;26262;49.836;6.632;2022-09-09T09:26:07;17.60;99.90
39347;DHT22;26262;49.836;6.632;2022-09-09T09:28:36;17.70;99.90
39347;DHT22;26262;49.836;6.632;2022-09-09T09:31:10;17.60;99.90
39347;DHT22;26262;49.836;6.632;2022-09-09T09:36:02;17.30;99.90
39347;DHT22;26262;49.836;6.632;2022-09-09T09:38:29;17.20;99.90
39347;DHT22;26262;49.836;6.632;2022-09-09T09:40:55;16.80;99.90
39347;DHT22;26262;49.836;6.632;2022-09-09T09:43:41;16.90;99.90
39347;DHT22;26262;49.836;6.632;2022-09-09T09:46:20;16.70;99.90
39347;DHT22;26262;49.836;6.632;2022-09-09T09:49:04;16.30;99.90
39347;DHT22;26262;49.836;6.632;2022-09-09T09:51:32;16.50;99.90
39347;DHT22;26262;49.836;6.632;2022-09-09T09:56:41;16.90;99.90
39347;DHT22;26262;49.836;6.632;2022-09-09T09:59:34;17.20;99.90
39347;DHT22;26262;49.836;6.632;2022-09-09T10:02:20;17.30;99.90
39347;DHT22;26262;49.836;6.632;2022-09-09T10:04:46;17.40;99.90
39347;DHT22;26262;49.836;6.632;2022-09-09T10:07:19;17.10;99.90
39347;DHT22;26262;49.836;6.632;2022-09-09T10:09:54;17.10;99.90
39347;DHT22;26262;49.836;6.632;2022-09-09T10:26:47;18.70;99.90
39347;DHT22;26262;49.836;6.632;2022-09-09T10:37:30;19.00;99.90
39347;DHT22;26262;49.836;6.632;2022-09-09T10:40:27;19.60;99.90
39347;DHT22;26262;49.836;6.632;2022-09-09T10:43:01;20.20;99.90
39347;DHT22;26262;49.836;6.632;2022-09-09T10:45:54;20.70;99.90
39347;DHT22;26262;49.836;6.632;2022-09-09T10:51:28;21.20;99.90
39347;DHT22;26262;49.836;6.632;2022-09-09T10:56:55;21.20;99.90
39347;DHT22;26262;49.836;6.632;2022-09-09T10:59:27;21.40;99.90
39347;DHT22;26262;49.836;6.632;2022-09-09T11:04:49;21.50;99.90
39347;DHT22;26262;49.836;6.632;2022-09-09T11:07:27;21.70;99.90
39347;DHT22;26262;49.836;6.632;2022-09-09T11:09:55;22.20;99.90
39347;DHT22;26262;49.836;6.632;2022-09-09T11:12:22;22.60;99.90
39347;DHT22;26262;49.836;6.632;2022-09-09T11:17:42;21.60;99.90
39347;DHT22;26262;49.836;6.632;2022-09-09T11:20:12;21.20;99.90
39347;DHT22;26262;49.836;6.632;2022-09-09T11:23:00;20.90;99.90
39347;DHT22;26262;49.836;6.632;2022-09-09T11:25:31;20.50;99.90
39347;DHT22;26262;49.836;6.632;2022-09-09T11:31:03;20.60;99.90
39347;DHT22;26262;49.836;6.632;2022-09-09T11:36:35;21.10;99.90
39347;DHT22;26262;49.836;6.632;2022-09-09T11:39:42;21.00;99.90
39347;DHT22;26262;49.836;6.632;2022-09-09T11:42:20;21.30;99.90
39347;DHT22;26262;49.836;6.632;2022-09-09T11:44:46;21.30;99.90
39347;DHT22;26262;49.836;6.632;2022-09-09T11:47:23;21.20;99.90
39347;DHT22;26262;49.836;6.632;2022-09-09T11:50:06;20.80;99.90
39347;DHT22;26262;49.836;6.632;2022-09-09T11:52:36;20.70;99.90
39347;DHT22;26262;49.836;6.632;2022-09-09T11:55:33;20.50;99.90
39347;DHT22;26262;49.836;6.632;2022-09-09T11:58:05;20.50;99.90
39347;DHT22;26262;49.836;6.632;2022-09-09T12:00:38;20.30;99.90
39347;DHT22;26262;49.836;6.632;2022-09-09T12:05:58;21.50;99.90
39347;DHT22;26262;49.836;6.632;2022-09-09T12:08:27;22.10;99.30
39347;DHT22;26262;49.836;6.632;2022-09-09T12:10:56;22.60;99.90
39347;DHT22;26262;49.836;6.632;2022-09-09T12:13:24;22.80;99.90
39347;DHT22;26262;49.836;6.632;2022-09-09T12:15:57;22.90;98.60
39347;DHT22;26262;49.836;6.632;2022-09-09T12:18:36;22.80;98.60
39347;DHT22;26262;49.836;6.632;2022-09-09T12:21:39;22.30;98.60
39347;DHT22;26262;49.836;6.632;2022-09-09T12:24:13;22.60;98.50
39347;DHT22;26262;49.836;6.632;2022-09-09T12:27:07;22.70;98.10
39347;DHT22;26262;49.836;6.632;2022-09-09T12:32:43;22.90;97.80
39347;DHT22;26262;49.836;6.632;2022-09-09T12:35:11;22.40;97.90
39347;DHT22;26262;49.836;6.632;2022-09-09T12:40:26;21.90;98.00
39347;DHT22;26262;49.836;6.632;2022-09-09T12:42:50;21.70;97.80
39347;DHT22;26262;49.836;6.632;2022-09-09T12:45:19;21.70;98.90
39347;DHT22;26262;49.836;6.632;2022-09-09T12:50:19;21.60;98.40
39347;DHT22;26262;49.836;6.632;2022-09-09T12:52:47;22.10;96.90
39347;DHT22;26262;49.836;6.632;2022-09-09T12:55:19;22.30;97.90
39347;DHT22;26262;49.836;6.632;2022-09-09T12:57:48;21.70;97.00
39347;DHT22;26262;49.836;6.632;2022-09-09T13:00:21;21.80;98.50
39347;DHT22;26262;49.836;6.632;2022-09-09T13:02:51;21.70;98.60
39347;DHT22;26262;49.836;6.632;2022-09-09T13:07:51;21.40;98.60
39347;DHT22;26262;49.836;6.632;2022-09-09T13:10:28;21.30;99.90
39347;DHT22;26262;49.836;6.632;2022-09-09T13:12:54;21.10;99.10
39347;DHT22;26262;49.836;6.632;2022-09-09T13:15:22;21.00;99.10
39347;DHT22;26262;49.836;6.632;2022-09-09T13:17:51;21.00;99.90
39347;DHT22;26262;49.836;6.632;2022-09-09T13:20:19;20.60;99.90
39347;DHT22;26262;49.836;6.632;2022-09-09T13:22:47;19.60;99.90
39347;DHT22;26262;49.836;6.632;2022-09-09T13:25:26;19.30;99.90
39347;DHT22;26262;49.836;6.632;2022-09-09T13:30:35;18.70;99.90
39347;DHT22;26262;49.836;6.632;2022-09-09T13:33:03;18.80;99.90
39347;DHT22;26262;49.836;6.632;2022-09-09T13:35:29;18.90;99.90
39347;DHT22;26262;49.836;6.632;2022-09-09T13:37:55;18.90;99.90
39347;DHT22;26262;49.836;6.632;2022-09-09T13:40:22;18.60;99.90
39347;DHT22;26262;49.836;6.632;2022-09-09T13:42:52;18.60;99.90
39347;DHT22;26262;49.836;6.632;2022-09-09T13:45:21;18.10;99.90
39347;DHT22;26262;49.836;6.632;2022-09-09T13:47:47;18.20;99.90
39347;DHT22;26262;49.836;6.632;2022-09-09T13:50:26;18.40;99.90
39347;DHT22;26262;49.836;6.632;2022-09-09T13:52:57;18.40;99.90
39347;DHT22;26262;49.836;6.632;2022-09-09T13:55:26;18.50;99.90
39347;DHT22;26262;49.836;6.632;2022-09-09T13:57:57;18.30;99.90
39347;DHT22;26262;49.836;6.632;2022-09-09T14:00:23;18.20;99.90
39347;DHT22;26262;49.836;6.632;2022-09-09T14:02:50;18.30;99.90
39347;DHT22;26262;49.836;6.632;2022-09-09T14:05:17;18.10;99.90
39347;DHT22;26262;49.836;6.632;2022-09-09T14:07:43;18.00;99.90
39347;DHT22;26262;49.836;6.632;2022-09-09T14:10:10;17.90;99.90
39347;DHT22;26262;49.836;6.632;2022-09-09T14:12:36;17.80;99.90
39347;DHT22;26262;49.836;6.632;2022-09-09T14:15:03;17.50;99.90
39347;DHT22;26262;49.836;6.632;2022-09-09T14:17:28;17.20;99.90
39347;DHT22;26262;49.836;6.632;2022-09-09T14:19:55;16.80;99.90
39347;DHT22;26262;49.836;6.632;2022-09-09T14:22:21;16.60;99.90
39347;DHT22;26262;49.836;6.632;2022-09-09T14:24:47;16.50;99.90
39347;DHT22;26262;49.836;6.632;2022-09-09T14:27:13;16.60;99.90
39347;DHT22;26262;49.836;6.632;2022-09-09T14:29:39;16.70;99.90
39347;DHT22;26262;49.836;6.632;2022-09-09T14:32:04;16.90;99.90
39347;DHT22;26262;49.836;6.632;2022-09-09T14:34:30;16.70;99.90
39347;DHT22;26262;49.836;6.632;2022-09-09T14:36:57;16.40;99.90
39347;DHT22;26262;49.836;6.632;2022-09-09T14:39:23;16.50;99.90
39347;DHT22;26262;49.836;6.632;2022-09-09T14:41:48;16.60;99.90
39347;DHT22;26262;49.836;6.632;2022-09-09T14:44:14;16.60;99.90
39347;DHT22;26262;49.836;6.632;2022-09-09T14:46:41;16.10;99.90
39347;DHT22;26262;49.836;6.632;2022-09-09T14:49:08;16.20;99.90
39347;DHT22;26262;49.836;6.632;2022-09-09T14:51:35;16.00;99.90
39347;DHT22;26262;49.836;6.632;2022-09-09T14:54:01;15.90;99.90
39347;DHT22;26262;49.836;6.632;2022-09-09T14:56:29;15.80;99.90
39347;DHT22;26262;49.836;6.632;2022-09-09T14:58:57;15.90;99.90
39347;DHT22;26262;49.836;6.632;2022-09-09T15:01:24;16.10;99.90
39347;DHT22;26262;49.836;6.632;2022-09-09T15:03:57;16.20;99.90
39347;DHT22;26262;49.836;6.632;2022-09-09T15:06:24;16.50;99.90
39347;DHT22;26262;49.836;6.632;2022-09-09T15:08:51;16.60;99.90
39347;DHT22;26262;49.836;6.632;2022-09-09T15:11:17;16.90;99.90
39347;DHT22;26262;49.836;6.632;2022-09-09T15:13:43;17.00;99.90
39347;DHT22;26262;49.836;6.632;2022-09-09T15:16:12;17.10;99.90
39347;DHT22;26262;49.836;6.632;2022-09-09T15:18:38;17.20;99.90
39347;DHT22;26262;49.836;6.632;2022-09-09T15:21:11;17.30;99.90
39347;DHT22;26262;49.836;6.632;2022-09-09T15:23:38;17.30;99.90
39347;DHT22;26262;49.836;6.632;2022-09-09T15:26:04;17.40;99.90
39347;DHT22;26262;49.836;6.632;2022-09-09T15:28:32;17.50;99.90
39347;DHT22;26262;49.836;6.632;2022-09-09T15:31:09;17.30;99.90
39347;DHT22;26262;49.836;6.632;2022-09-09T15:33:36;17.40;99.90
39347;DHT22;26262;49.836;6.632;2022-09-09T15:36:24;17.30;99.90
39347;DHT22;26262;49.836;6.632;2022-09-09T15:38:50;17.30;99.90
39347;DHT22;26262;49.836;6.632;2022-09-09T15:41:17;17.40;99.90
39347;DHT22;26262;49.836;6.632;2022-09-09T15:43:47;17.30;99.90
39347;DHT22;26262;49.836;6.632;2022-09-09T15:48:42;17.20;99.90
39347;DHT22;26262;49.836;6.632;2022-09-09T15:51:10;16.80;99.90
39347;DHT22;26262;49.836;6.632;2022-09-09T15:53:38;16.30;99.90
39347;DHT22;26262;49.836;6.632;2022-09-09T15:56:08;16.40;99.90
39347;DHT22;26262;49.836;6.632;2022-09-09T15:58:35;16.50;99.90
39347;DHT22;26262;49.836;6.632;2022-09-09T16:01:02;16.40;99.90
39347;DHT22;26262;49.836;6.632;2022-09-09T16:03:30;16.20;99.90
39347;DHT22;26262;49.836;6.632;2022-09-09T16:05:58;16.30;99.90
39347;DHT22;26262;49.836;6.632;2022-09-09T16:08:25;16.40;99.90
39347;DHT22;26262;49.836;6.632;2022-09-09T16:10:56;16.20;99.90
39347;DHT22;26262;49.836;6.632;2022-09-09T16:13:21;16.00;99.90
39347;DHT22;26262;49.836;6.632;2022-09-09T16:15:54;15.90;99.90
39347;DHT22;26262;49.836;6.632;2022-09-09T16:18:20;15.90;99.90
39347;DHT22;26262;49.836;6.632;2022-09-09T16:20:54;15.70;99.90
39347;DHT22;26262;49.836;6.632;2022-09-09T16:23:20;15.80;99.90
39347;DHT22;26262;49.836;6.632;2022-09-09T16:25:53;15.90;99.90
39347;DHT22;26262;49.836;6.632;2022-09-09T16:28:19;16.00;99.90
39347;DHT22;26262;49.836;6.632;2022-09-09T16:30:45;16.10;99.90
39347;DHT22;26262;49.836;6.632;2022-09-09T16:33:10;16.20;99.90
39347;DHT22;26262;49.836;6.632;2022-09-09T16:35:37;16.10;99.90
39347;DHT22;26262;49.836;6.632;2022-09-09T16:38:04;15.90;99.90
39347;DHT22;26262;49.836;6.632;2022-09-09T16:40:29;15.80;99.90
39347;DHT22;26262;49.836;6.632;2022-09-09T16:42:55;15.90;99.90
39347;DHT22;26262;49.836;6.632;2022-09-09T16:45:21;15.70;99.90
39347;DHT22;26262;49.836;6.632;2022-09-09T16:47:47;15.90;99.90
39347;DHT22;26262;49.836;6.632;2022-09-09T16:50:14;15.90;99.90
39347;DHT22;26262;49.836;6.632;2022-09-09T16:52:39;15.80;99.90
39347;DHT22;26262;49.836;6.632;2022-09-09T16:55:05;15.80;99.90
39347;DHT22;26262;49.836;6.632;2022-09-09T16:57:31;15.90;99.90
39347;DHT22;26262;49.836;6.632;2022-09-09T16:59:56;15.90;99.90
39347;DHT22;26262;49.836;6.632;2022-09-09T17:02:24;16.10;99.90
39347;DHT22;26262;49.836;6.632;2022-09-09T17:04:50;16.20;99.90
39347;DHT22;26262;49.836;6.632;2022-09-09T17:07:16;15.90;99.90
39347;DHT22;26262;49.836;6.632;2022-09-09T17:09:41;16.00;99.90
39347;DHT22;26262;49.836;6.632;2022-09-09T17:12:07;16.00;99.90
39347;DHT22;26262;49.836;6.632;2022-09-09T17:14:33;16.20;99.90
39347;DHT22;26262;49.836;6.632;2022-09-09T17:16:59;16.20;99.90
39347;DHT22;26262;49.836;6.632;2022-09-09T17:19:26;16.30;99.90
39347;DHT22;26262;49.836;6.632;2022-09-09T17:21:51;16.40;99.90
39347;DHT22;26262;49.836;6.632;2022-09-09T17:24:17;16.50;99.90
39347;DHT22;26262;49.836;6.632;2022-09-09T17:26:42;16.40;99.90
39347;DHT22;26262;49.836;6.632;2022-09-09T17:29:10;16.50;99.90
39347;DHT22;26262;49.836;6.632;2022-09-09T17:31:36;16.50;99.90
39347;DHT22;26262;49.836;6.632;2022-09-09T17:34:02;16.50;99.90
39347;DHT22;26262;49.836;6.632;2022-09-09T17:36:30;16.50;99.90
39347;DHT22;26262;49.836;6.632;2022-09-09T17:38:57;16.50;99.90
39347;DHT22;26262;49.836;6.632;2022-09-09T17:41:25;16.00;99.90
39347;DHT22;26262;49.836;6.632;2022-09-09T17:43:51;15.90;99.90
39347;DHT22;26262;49.836;6.632;2022-09-09T17:46:24;16.00;99.90
39347;DHT22;26262;49.836;6.632;2022-09-09T17:48:52;16.00;99.90
39347;DHT22;26262;49.836;6.632;2022-09-09T17:51:22;16.10;99.90
39347;DHT22;26262;49.836;6.632;2022-09-09T17:53:54;16.10;99.90
39347;DHT22;26262;49.836;6.632;2022-09-09T17:56:22;16.10;99.90